Neosho Falls, Kansas
Current Conditions -  °F | °C
As of 11:52 PM on Friday 24 Oct 2014 (Local Time) from KCNU Reporting Station
Clear Clear  
Wind Chill: 63°   Ceiling: Unl
Heat Index: 63°   Visibility: 10mi
Dew Point: 60°   Wind: 9mph
Humidity: 90%   Direction: 200°SSW
Pressure: 30.02"   Gusts: NA
Location:  38.01°N, 95.56°W
Report Text: KCNU 250452Z AUTO 20008KT 10SM CLR 17/16 A3002 RMK AO2 SLP158 T01720156
Loading
Personal Weather Stations






























Interactive Weather Map
Tropical Storm Tracking
New forecast layout! Learn more

10-Day Weather Forecast

Advertisements
Track Severe Weather on mobile